createdAt,value
2018-03-29T00:00:59.828Z,0.30
2018-03-29T00:02:03.816Z,0.50
2018-03-29T00:03:07.791Z,0.45
2018-03-29T00:04:10.987Z,0.40
2018-03-29T00:05:15.052Z,0.60
2018-03-29T00:06:18.229Z,0.40
2018-03-29T00:07:21.573Z,0.40
2018-03-29T00:08:25.533Z,0.40
2018-03-29T00:09:28.781Z,0.40
2018-03-29T00:10:32.007Z,0.35
2018-03-29T00:11:35.233Z,0.43
2018-03-29T00:12:38.497Z,0.45
2018-03-29T00:13:42.474Z,0.60
2018-03-29T00:14:45.689Z,0.68
2018-03-29T00:15:49.708Z,0.30
2018-03-29T00:16:52.937Z,0.40
2018-03-29T00:17:56.171Z,0.40
2018-03-29T00:18:59.399Z,0.40
2018-03-29T00:20:02.626Z,0.30
2018-03-29T00:21:05.865Z,0.35
2018-03-29T00:22:09.063Z,0.37
2018-03-29T00:23:12.325Z,0.37
2018-03-29T00:24:15.614Z,0.40
2018-03-29T00:25:18.804Z,0.37
2018-03-29T00:26:22.172Z,0.30
2018-03-29T00:27:25.419Z,0.30
2018-03-29T00:28:28.665Z,0.40
2018-03-29T00:29:31.969Z,0.30
2018-03-29T00:30:35.979Z,0.30
2018-03-29T00:31:39.260Z,0.35
2018-03-29T00:32:43.240Z,0.43
2018-03-29T00:33:47.276Z,0.40
2018-03-29T00:34:50.511Z,0.40
2018-03-29T00:35:53.786Z,0.40
2018-03-29T00:36:56.998Z,0.40
2018-03-29T00:38:01.062Z,0.30
2018-03-29T00:39:04.249Z,0.40
2018-03-29T00:40:07.453Z,0.60
2018-03-29T00:41:12.190Z,0.30
2018-03-29T00:42:16.151Z,0.30
2018-03-29T00:43:19.356Z,0.30
2018-03-29T00:44:23.332Z,0.40
2018-03-29T00:45:26.540Z,0.30
2018-03-29T00:46:30.533Z,0.28
2018-03-29T00:47:33.737Z,0.43
2018-03-29T00:48:37.708Z,0.40
2018-03-29T00:49:40.930Z,1.40
2018-03-29T00:50:44.151Z,0.50
2018-03-29T00:51:47.332Z,0.47
2018-03-29T00:52:50.557Z,0.40
2018-03-29T00:53:54.520Z,0.40
2018-03-29T00:54:57.765Z,0.30
2018-03-29T00:56:00.982Z,0.40
2018-03-29T00:57:04.206Z,0.40
2018-03-29T00:58:08.174Z,0.50
2018-03-29T00:59:11.385Z,0.40
2018-03-29T01:00:15.358Z,0.35
2018-03-29T01:01:18.564Z,0.50
2018-03-29T01:02:22.528Z,0.40
2018-03-29T01:03:25.755Z,0.45
2018-03-29T01:04:29.772Z,0.55
2018-03-29T01:05:33.046Z,0.50
2018-03-29T01:06:37.039Z,0.37
2018-03-29T01:07:40.338Z,0.37
2018-03-29T01:08:44.312Z,0.62
2018-03-29T01:09:48.306Z,0.45
2018-03-29T01:10:51.626Z,0.40
2018-03-29T01:11:54.851Z,0.50
2018-03-29T01:12:58.048Z,0.40
2018-03-29T01:14:01.258Z,0.37
2018-03-29T01:15:05.234Z,0.60
2018-03-29T01:16:08.440Z,0.40
2018-03-29T01:17:12.469Z,0.50
2018-03-29T01:18:16.404Z,0.47
2018-03-29T01:19:19.622Z,0.95
2018-03-29T01:20:23.595Z,0.55
2018-03-29T01:21:26.809Z,0.50
2018-03-29T01:22:30.793Z,0.50
2018-03-29T01:23:34.043Z,0.70
2018-03-29T01:24:37.217Z,0.50
2018-03-29T01:25:40.424Z,0.40
2018-03-29T01:26:43.862Z,0.45
2018-03-29T01:27:47.065Z,0.68
2018-03-29T01:28:50.287Z,0.50
2018-03-29T01:29:53.472Z,0.65
2018-03-29T01:30:57.444Z,0.60
2018-03-29T01:32:00.695Z,0.57
2018-03-29T01:33:03.892Z,0.70
2018-03-29T01:34:07.088Z,0.80
2018-03-29T01:35:10.296Z,0.85
2018-03-29T01:36:13.499Z,0.50
2018-03-29T01:37:16.748Z,0.60
2018-03-29T01:38:21.475Z,0.70
2018-03-29T01:39:26.183Z,0.60
2018-03-29T01:40:29.401Z,0.70
2018-03-29T01:41:32.668Z,0.75
2018-03-29T01:42:36.640Z,0.57
2018-03-29T01:43:39.859Z,0.60
2018-03-29T01:44:43.847Z,0.70
2018-03-29T01:45:47.038Z,0.65
2018-03-29T01:46:51.004Z,0.73
2018-03-29T01:47:54.223Z,0.80
2018-03-29T01:48:58.185Z,0.70
2018-03-29T01:50:01.388Z,0.88
2018-03-29T01:51:04.602Z,0.90
2018-03-29T01:52:07.827Z,0.60
2018-03-29T01:53:11.071Z,0.40
2018-03-29T01:54:14.297Z,0.50
2018-03-29T01:55:17.488Z,0.60
2018-03-29T01:56:20.705Z,0.93
2018-03-29T01:57:24.696Z,0.70
2018-03-29T01:58:28.709Z,0.45
2018-03-29T01:59:32.012Z,1.08
2018-03-29T02:00:35.225Z,0.70
2018-03-29T02:01:38.428Z,0.43
2018-03-29T02:02:41.744Z,0.70
2018-03-29T02:03:45.711Z,0.70
2018-03-29T02:04:49.757Z,0.80
2018-03-29T02:05:52.983Z,0.95
2018-03-29T02:06:56.184Z,0.50
2018-03-29T02:07:59.397Z,0.50
2018-03-29T02:09:03.401Z,0.60
2018-03-29T02:10:06.623Z,0.50
2018-03-29T02:11:09.823Z,0.47
2018-03-29T02:12:13.043Z,0.60
2018-03-29T02:13:16.246Z,0.68
2018-03-29T02:14:19.458Z,0.50
2018-03-29T02:15:22.690Z,0.40
2018-03-29T02:16:26.681Z,0.65
2018-03-29T02:17:30.650Z,0.60
2018-03-29T02:18:33.874Z,0.60
2018-03-29T02:19:37.095Z,0.37
2018-03-29T02:20:41.000Z,0.60
2018-03-29T02:21:44.176Z,0.57
2018-03-29T02:22:47.372Z,0.60
2018-03-29T02:23:50.618Z,0.70
2018-03-29T02:24:53.812Z,0.70
2018-03-29T02:25:57.016Z,0.50
2018-03-29T02:27:00.223Z,0.60
2018-03-29T02:28:03.425Z,0.55
2018-03-29T02:29:07.413Z,0.50
2018-03-29T02:30:11.377Z,0.75
2018-03-29T02:31:14.596Z,0.65
2018-03-29T02:32:18.561Z,0.70
2018-03-29T02:33:21.786Z,0.60
2018-03-29T02:34:25.749Z,0.70
2018-03-29T02:35:28.962Z,0.70
2018-03-29T02:36:32.949Z,0.80
2018-03-29T02:37:36.159Z,0.70
2018-03-29T02:38:40.154Z,0.90
2018-03-29T02:39:43.354Z,0.80
2018-03-29T02:40:46.544Z,0.68
2018-03-29T02:41:49.824Z,0.65
2018-03-29T02:42:53.025Z,0.75
2018-03-29T02:43:56.228Z,0.73
2018-03-29T02:44:59.442Z,1.10
2018-03-29T02:46:02.680Z,0.60
2018-03-29T02:47:05.943Z,0.90
2018-03-29T02:48:09.145Z,0.70
2018-03-29T02:49:12.381Z,0.70
2018-03-29T02:50:16.351Z,0.80
2018-03-29T02:51:19.573Z,0.62
2018-03-29T02:52:22.906Z,1.08
2018-03-29T02:53:26.173Z,1.00
2018-03-29T02:54:29.428Z,0.80
2018-03-29T02:55:33.413Z,0.80
2018-03-29T02:56:37.384Z,0.70
2018-03-29T02:57:40.629Z,0.75
2018-03-29T02:58:43.831Z,0.90
2018-03-29T02:59:47.036Z,1.10
2018-03-29T03:00:50.246Z,1.10
2018-03-29T03:01:54.226Z,1.00
2018-03-29T03:02:57.436Z,1.05
2018-03-29T03:04:00.653Z,1.00
2018-03-29T03:05:03.900Z,1.00
2018-03-29T03:06:07.879Z,0.82
2018-03-29T03:07:11.847Z,0.80
2018-03-29T03:08:15.047Z,1.25
2018-03-29T03:09:18.260Z,1.15
2018-03-29T03:10:21.494Z,1.10
2018-03-29T03:11:24.674Z,0.95
2018-03-29T03:12:27.901Z,1.17
2018-03-29T03:13:31.888Z,1.00
2018-03-29T03:14:35.881Z,1.17
2018-03-29T03:15:39.860Z,1.00
2018-03-29T03:16:43.146Z,1.37
2018-03-29T03:17:46.360Z,2.20
2018-03-29T03:18:50.350Z,1.30
2018-03-29T03:19:53.637Z,1.20
2018-03-29T03:20:57.605Z,1.27
2018-03-29T03:22:00.814Z,1.20
2018-03-29T03:23:04.028Z,1.10
2018-03-29T03:24:07.317Z,1.20
2018-03-29T03:25:10.525Z,0.90
2018-03-29T03:26:13.716Z,1.17
2018-03-29T03:27:16.943Z,1.12
2018-03-29T03:28:20.177Z,1.40
2018-03-29T03:29:23.406Z,1.10
2018-03-29T03:30:27.394Z,1.40
2018-03-29T03:31:30.703Z,0.85
2018-03-29T03:32:33.927Z,0.85
2018-03-29T03:33:37.121Z,1.30
2018-03-29T03:34:40.370Z,1.10
2018-03-29T03:35:43.563Z,0.95
2018-03-29T03:36:46.797Z,1.20
2018-03-29T03:37:50.090Z,1.73
2018-03-29T03:38:54.096Z,1.15
2018-03-29T03:39:58.059Z,1.10
2018-03-29T03:41:01.296Z,0.88
2018-03-29T03:42:04.556Z,1.58
2018-03-29T03:43:07.756Z,0.85
2018-03-29T03:44:11.763Z,0.98
2018-03-29T03:45:15.742Z,0.93
2018-03-29T03:46:19.737Z,1.27
2018-03-29T03:47:22.946Z,1.02
2018-03-29T03:48:26.273Z,1.48
2018-03-29T03:49:29.460Z,1.20
2018-03-29T03:50:32.650Z,1.85
2018-03-29T03:51:35.870Z,1.08
2018-03-29T03:52:39.855Z,1.42
2018-03-29T03:53:43.809Z,1.30
2018-03-29T03:54:47.016Z,1.42
2018-03-29T03:55:50.228Z,1.90
2018-03-29T03:56:53.434Z,1.23
2018-03-29T03:57:56.658Z,1.15
2018-03-29T03:58:59.855Z,1.70
2018-03-29T04:00:03.848Z,1.90
2018-03-29T04:01:07.876Z,1.98
2018-03-29T04:02:11.156Z,2.00
2018-03-29T04:03:15.151Z,2.90
2018-03-29T04:04:19.144Z,2.50
2018-03-29T04:05:22.465Z,2.90
2018-03-29T04:06:25.720Z,2.87
2018-03-29T04:07:29.736Z,2.90
2018-03-29T04:08:33.735Z,2.67
2018-03-29T04:09:36.947Z,2.70
2018-03-29T04:10:40.153Z,2.40
2018-03-29T04:11:43.359Z,2.55
2018-03-29T04:12:47.339Z,2.75
2018-03-29T04:13:50.536Z,3.00
2018-03-29T04:14:55.180Z,2.70
2018-03-29T04:15:59.143Z,2.87
2018-03-29T04:17:03.242Z,2.85
2018-03-29T04:18:06.405Z,2.58
2018-03-29T04:19:09.618Z,2.55
2018-03-29T04:20:13.651Z,2.95
2018-03-29T04:21:16.924Z,2.90
2018-03-29T04:22:20.899Z,3.40
2018-03-29T04:23:24.110Z,2.55
2018-03-29T04:24:27.301Z,2.60
2018-03-29T04:25:30.573Z,2.87
2018-03-29T04:26:34.592Z,2.87
2018-03-29T04:27:37.805Z,3.03
2018-03-29T04:28:41.016Z,3.55
2018-03-29T04:29:44.271Z,3.50
2018-03-29T04:30:47.475Z,2.62
2018-03-29T04:31:50.692Z,3.90
2018-03-29T04:32:53.928Z,3.40
2018-03-29T04:33:57.125Z,3.05
2018-03-29T04:35:00.332Z,3.40
2018-03-29T04:36:04.329Z,3.37
2018-03-29T04:37:07.521Z,2.70
2018-03-29T04:38:10.719Z,3.22
2018-03-29T04:39:13.934Z,3.30
2018-03-29T04:40:17.177Z,2.78
2018-03-29T04:41:20.405Z,2.87
2018-03-29T04:42:23.609Z,3.30
2018-03-29T04:43:27.580Z,3.30
2018-03-29T04:44:30.808Z,3.42
2018-03-29T04:45:34.795Z,2.70
2018-03-29T04:46:37.999Z,3.00
2018-03-29T04:47:41.208Z,2.92
2018-03-29T04:48:44.409Z,3.33
2018-03-29T04:49:49.001Z,3.03
2018-03-29T04:50:52.188Z,3.37
2018-03-29T04:51:55.398Z,3.33
2018-03-29T04:52:58.637Z,3.33
2018-03-29T04:54:01.898Z,3.10
2018-03-29T04:55:05.888Z,3.12
2018-03-29T04:56:09.091Z,3.00
2018-03-29T04:57:12.313Z,3.30
2018-03-29T04:58:15.609Z,2.90
2018-03-29T04:59:18.830Z,3.08
2018-03-29T05:00:22.883Z,3.65
2018-03-29T05:01:26.059Z,3.28
2018-03-29T05:02:29.273Z,5.95
2018-03-29T05:03:32.485Z,3.30
2018-03-29T05:04:35.769Z,3.60
2018-03-29T05:05:38.969Z,2.92
2018-03-29T05:06:42.224Z,3.03
2018-03-29T05:07:46.203Z,3.10
2018-03-29T05:08:49.435Z,3.55
2018-03-29T05:09:52.644Z,3.03
2018-03-29T05:10:55.848Z,3.30
2018-03-29T05:11:59.056Z,3.17
2018-03-29T05:13:03.037Z,3.50
2018-03-29T05:14:07.013Z,3.45
2018-03-29T05:15:10.210Z,4.15
2018-03-29T05:16:13.457Z,3.60
2018-03-29T05:17:16.668Z,3.12
2018-03-29T05:18:19.869Z,3.30
2018-03-29T05:19:23.110Z,3.25
2018-03-29T05:20:26.305Z,3.37
2018-03-29T05:21:29.538Z,3.20
2018-03-29T05:22:33.532Z,2.95
2018-03-29T05:23:37.506Z,3.20
2018-03-29T05:24:40.733Z,3.53
2018-03-29T05:25:46.824Z,3.40
2018-03-29T05:26:50.028Z,3.28
2018-03-29T05:27:54.062Z,2.90
2018-03-29T05:28:57.332Z,3.08
2018-03-29T05:30:01.317Z,3.87
2018-03-29T05:31:04.534Z,3.40
2018-03-29T05:32:07.798Z,3.42
2018-03-29T05:33:11.776Z,3.17
2018-03-29T05:34:15.002Z,3.45
2018-03-29T05:35:18.224Z,3.67
2018-03-29T05:36:21.420Z,3.47
2018-03-29T05:37:24.646Z,3.70
2018-03-29T05:38:27.853Z,3.28
2018-03-29T05:39:31.092Z,3.72
2018-03-29T05:40:35.064Z,3.50
2018-03-29T05:41:38.277Z,3.40
2018-03-29T05:42:42.241Z,2.60
2018-03-29T05:43:45.580Z,4.18
2018-03-29T05:44:48.785Z,3.50
2018-03-29T05:45:51.989Z,3.42
2018-03-29T05:46:55.239Z,3.30
2018-03-29T05:47:58.438Z,3.85
2018-03-29T05:49:01.676Z,3.97
2018-03-29T05:50:05.649Z,3.50
2018-03-29T05:51:08.852Z,3.80
2018-03-29T05:52:12.834Z,3.53
2018-03-29T05:53:16.881Z,4.03
2018-03-29T05:54:20.097Z,3.42
2018-03-29T05:55:23.297Z,3.30
2018-03-29T05:56:26.603Z,3.90
2018-03-29T05:57:30.596Z,4.37
2018-03-29T05:58:33.841Z,3.20
2018-03-29T05:59:37.049Z,3.60
2018-03-29T06:00:40.358Z,4.50
2018-03-29T06:01:44.324Z,4.22
2018-03-29T06:02:47.525Z,4.10
2018-03-29T06:03:51.505Z,3.85
2018-03-29T06:04:54.718Z,3.65
2018-03-29T06:05:58.712Z,4.53
2018-03-29T06:07:01.949Z,3.80
2018-03-29T06:08:05.144Z,3.45
2018-03-29T06:09:08.565Z,3.97
2018-03-29T06:10:12.543Z,3.80
2018-03-29T06:11:15.812Z,4.00
2018-03-29T06:12:18.992Z,3.70
2018-03-29T06:13:22.214Z,4.00
2018-03-29T06:14:31.966Z,4.05
2018-03-29T06:15:35.201Z,3.20
2018-03-29T06:16:44.219Z,4.25
2018-03-29T06:17:53.100Z,4.72
2018-03-29T06:19:14.228Z,3.67
2018-03-29T06:20:17.414Z,3.97
2018-03-29T06:21:20.647Z,4.55
2018-03-29T06:22:23.850Z,4.20
2018-03-29T06:23:27.059Z,3.83
2018-03-29T06:24:30.262Z,4.47
2018-03-29T06:25:33.472Z,4.75
2018-03-29T06:26:37.470Z,4.25
2018-03-29T06:27:40.684Z,4.70
2018-03-29T06:28:43.893Z,4.75
2018-03-29T06:29:47.093Z,4.00
2018-03-29T06:30:50.352Z,4.35
2018-03-29T06:31:53.543Z,4.80
2018-03-29T06:32:56.735Z,3.92
2018-03-29T06:34:00.694Z,3.95
2018-03-29T06:35:03.926Z,5.20
2018-03-29T06:36:07.134Z,4.20
2018-03-29T06:37:10.342Z,5.05
2018-03-29T06:38:13.563Z,4.30
2018-03-29T06:39:16.788Z,4.45
2018-03-29T06:40:20.009Z,5.15
2018-03-29T06:41:23.216Z,4.75
2018-03-29T06:42:26.448Z,3.90
2018-03-29T06:43:29.696Z,4.40
2018-03-29T06:44:33.693Z,4.43
2018-03-29T06:45:36.892Z,4.22
2018-03-29T06:46:40.102Z,3.95
2018-03-29T06:47:43.309Z,4.75
2018-03-29T06:48:46.540Z,4.25
2018-03-29T06:49:49.784Z,4.70
2018-03-29T06:50:53.004Z,4.18
2018-03-29T06:51:56.207Z,4.50
2018-03-29T06:52:59.408Z,5.07
2018-03-29T06:54:02.622Z,4.53
2018-03-29T06:55:05.846Z,4.65
2018-03-29T06:56:09.092Z,4.20
2018-03-29T06:57:12.290Z,3.55
2018-03-29T06:58:16.253Z,4.00
2018-03-29T06:59:19.469Z,4.47
2018-03-29T07:00:23.446Z,4.07
2018-03-29T07:01:26.659Z,4.60
2018-03-29T07:02:30.638Z,3.55
2018-03-29T07:03:33.846Z,3.92
2018-03-29T07:04:37.061Z,4.20
2018-03-29T07:05:40.284Z,4.70
2018-03-29T07:06:44.270Z,4.70
2018-03-29T07:07:47.470Z,3.90
2018-03-29T07:08:50.795Z,4.18
2018-03-29T07:09:54.016Z,3.65
2018-03-29T07:10:57.205Z,3.90
2018-03-29T07:12:00.542Z,4.18
2018-03-29T07:13:03.771Z,3.60
2018-03-29T07:14:06.964Z,3.45
2018-03-29T07:15:10.181Z,3.50
2018-03-29T07:16:13.395Z,3.90
2018-03-29T07:17:16.620Z,4.28
2018-03-29T07:18:19.824Z,3.60
2018-03-29T07:19:23.029Z,4.30
2018-03-29T07:20:26.239Z,3.83
2018-03-29T07:21:29.444Z,4.60
2018-03-29T07:22:32.667Z,4.35
2018-03-29T07:23:35.897Z,4.00
2018-03-29T07:24:39.097Z,4.07
2018-03-29T07:25:43.096Z,4.30
2018-03-29T07:26:46.319Z,3.87
2018-03-29T07:27:50.461Z,4.22
2018-03-29T07:28:53.669Z,3.17
2018-03-29T07:29:57.653Z,3.33
2018-03-29T07:31:00.897Z,3.85
2018-03-29T07:32:04.187Z,4.22
2018-03-29T07:33:07.492Z,3.70
2018-03-29T07:34:10.671Z,3.17
2018-03-29T07:35:13.919Z,3.75
2018-03-29T07:36:17.121Z,3.22
2018-03-29T07:37:20.386Z,4.03
2018-03-29T07:38:23.607Z,3.50
2018-03-29T07:39:26.800Z,3.60
2018-03-29T07:40:30.110Z,3.92
2018-03-29T07:41:34.109Z,4.07
2018-03-29T07:42:38.087Z,3.20
2018-03-29T07:43:41.433Z,3.67
2018-03-29T07:44:44.807Z,3.97
2018-03-29T07:45:48.108Z,3.60
2018-03-29T07:46:51.334Z,3.60
2018-03-29T07:47:54.558Z,3.80
2018-03-29T07:48:57.756Z,3.45
2018-03-29T07:50:00.964Z,3.95
2018-03-29T07:51:04.208Z,3.80
2018-03-29T07:52:07.424Z,4.00
2018-03-29T07:53:10.640Z,4.15
2018-03-29T07:54:13.850Z,4.18
2018-03-29T07:55:17.060Z,3.80
2018-03-29T07:56:20.286Z,4.05
2018-03-29T07:57:24.294Z,3.97
2018-03-29T07:58:28.267Z,3.80
2018-03-29T07:59:31.470Z,3.40
2018-03-29T08:00:35.452Z,4.10
2018-03-29T08:01:38.662Z,4.15
2018-03-29T08:02:41.891Z,3.75
2018-03-29T08:03:45.117Z,3.67
2018-03-29T08:04:49.868Z,3.92
2018-03-29T08:05:53.089Z,3.92
2018-03-29T08:06:56.293Z,3.30
2018-03-29T08:07:59.642Z,2.90
2018-03-29T08:09:02.833Z,3.85
2018-03-29T08:10:06.058Z,4.10
2018-03-29T08:11:10.041Z,3.83
2018-03-29T08:12:14.052Z,3.80
2018-03-29T08:13:18.110Z,4.57
2018-03-29T08:14:21.287Z,3.50
2018-03-29T08:15:24.505Z,3.42
2018-03-29T08:16:27.817Z,3.40
2018-03-29T08:17:31.772Z,3.92
2018-03-29T08:18:34.981Z,3.60
2018-03-29T08:19:38.971Z,3.70
2018-03-29T08:20:42.173Z,4.40
2018-03-29T08:21:46.218Z,3.78
2018-03-29T08:22:49.383Z,3.55
2018-03-29T08:23:52.590Z,4.07
2018-03-29T08:24:55.775Z,3.33
2018-03-29T08:25:58.977Z,3.62
2018-03-29T08:27:02.237Z,3.80
2018-03-29T08:28:05.436Z,3.35
2018-03-29T08:29:08.669Z,3.37
2018-03-29T08:30:11.864Z,4.12
2018-03-29T08:31:15.097Z,4.03
2018-03-29T08:32:19.073Z,4.10
2018-03-29T08:33:22.276Z,3.65
2018-03-29T08:34:26.262Z,3.90
2018-03-29T08:35:29.504Z,4.22
2018-03-29T08:36:32.699Z,4.47
2018-03-29T08:37:35.960Z,4.22
2018-03-29T08:38:39.164Z,3.90
2018-03-29T08:39:42.361Z,4.22
2018-03-29T08:40:45.574Z,4.37
2018-03-29T08:41:49.546Z,4.20
2018-03-29T08:42:52.786Z,4.28
2018-03-29T08:43:55.984Z,4.25
2018-03-29T08:44:59.198Z,3.92
2018-03-29T08:46:02.434Z,4.32
2018-03-29T08:47:05.635Z,3.90
2018-03-29T08:48:08.867Z,4.15
2018-03-29T08:49:12.045Z,4.20
2018-03-29T08:50:15.364Z,4.55
2018-03-29T08:51:18.565Z,3.37
2018-03-29T08:52:21.793Z,4.10
2018-03-29T08:53:25.782Z,4.70
2018-03-29T08:54:28.987Z,4.15
2018-03-29T08:55:32.192Z,4.25
2018-03-29T08:56:35.414Z,3.55
2018-03-29T08:57:38.627Z,4.22
2018-03-29T08:58:41.843Z,4.45
2018-03-29T08:59:45.052Z,4.25
2018-03-29T09:00:48.295Z,3.87
2018-03-29T09:01:51.520Z,4.10
2018-03-29T09:02:54.738Z,3.90
2018-03-29T09:03:58.734Z,4.32
2018-03-29T09:05:01.964Z,4.10
2018-03-29T09:06:05.141Z,4.28
2018-03-29T09:07:08.358Z,4.30
2018-03-29T09:08:11.556Z,3.42
2018-03-29T09:09:14.768Z,5.40
2018-03-29T09:10:18.747Z,3.95
2018-03-29T09:11:21.968Z,3.70
2018-03-29T09:12:25.208Z,3.53
2018-03-29T09:13:28.433Z,3.72
2018-03-29T09:14:31.668Z,4.22
2018-03-29T09:15:34.872Z,3.83
2018-03-29T09:16:38.852Z,3.80
2018-03-29T09:17:42.080Z,3.67
2018-03-29T09:18:45.286Z,3.70
2018-03-29T09:19:48.523Z,4.40
2018-03-29T09:20:52.536Z,3.58
2018-03-29T09:21:56.538Z,3.97
2018-03-29T09:23:00.511Z,3.55
2018-03-29T09:24:03.740Z,3.25
2018-03-29T09:25:07.770Z,3.78
2018-03-29T09:26:11.033Z,4.50
2018-03-29T09:27:14.286Z,3.95
2018-03-29T09:28:17.470Z,4.10
2018-03-29T09:29:21.440Z,3.90
2018-03-29T09:30:24.655Z,4.28
2018-03-29T09:31:27.858Z,3.85
2018-03-29T09:32:31.126Z,4.62
2018-03-29T09:33:34.335Z,3.50
2018-03-29T09:34:37.548Z,4.95
2018-03-29T09:35:40.770Z,4.62
2018-03-29T09:36:43.944Z,5.22
2018-03-29T09:37:47.931Z,4.12
2018-03-29T09:38:51.915Z,4.72
2018-03-29T09:39:55.132Z,4.68
2018-03-29T09:40:58.364Z,3.75
2018-03-29T09:42:01.577Z,4.87
2018-03-29T09:43:05.557Z,3.85
2018-03-29T09:44:08.776Z,4.25
2018-03-29T09:45:11.984Z,4.40
2018-03-29T09:46:15.207Z,4.18
2018-03-29T09:47:18.414Z,5.80
2018-03-29T09:48:22.382Z,3.85
2018-03-29T09:49:25.595Z,4.22
2018-03-29T09:50:29.572Z,4.43
2018-03-29T09:51:32.782Z,4.75
2018-03-29T09:52:36.757Z,4.05
2018-03-29T09:53:39.964Z,4.82
2018-03-29T09:54:44.021Z,4.40
2018-03-29T09:55:47.200Z,4.28
2018-03-29T09:56:50.406Z,4.43
2018-03-29T09:57:53.607Z,4.95
2018-03-29T09:58:57.572Z,5.10
2018-03-29T10:00:00.890Z,4.32
2018-03-29T10:01:10.482Z,5.07
2018-03-29T10:02:18.685Z,4.45
2018-03-29T10:03:22.788Z,4.55
2018-03-29T10:04:26.046Z,4.68
2018-03-29T10:05:34.846Z,4.62
2018-03-29T10:06:51.789Z,4.82
2018-03-29T10:07:55.009Z,4.37
2018-03-29T10:08:59.025Z,4.82
2018-03-29T10:10:02.237Z,4.25
2018-03-29T10:11:05.481Z,4.50
2018-03-29T10:12:09.465Z,4.70
2018-03-29T10:13:12.696Z,4.93
2018-03-29T10:14:15.903Z,4.55
2018-03-29T10:15:19.136Z,4.87
2018-03-29T10:16:22.325Z,5.32
2018-03-29T10:17:25.552Z,4.68
2018-03-29T10:18:28.753Z,5.60
2018-03-29T10:19:31.970Z,4.32
2018-03-29T10:20:35.249Z,5.10
2018-03-29T10:21:38.464Z,7.25
2018-03-29T10:22:41.659Z,5.62
2018-03-29T10:23:44.877Z,4.20
2018-03-29T10:24:48.854Z,4.60
2018-03-29T10:25:52.078Z,4.45
2018-03-29T10:26:56.050Z,5.20
2018-03-29T10:27:59.252Z,5.00
2018-03-29T10:29:02.487Z,4.50
2018-03-29T10:30:05.683Z,4.18
2018-03-29T10:31:08.987Z,4.20
2018-03-29T10:32:12.964Z,4.53
2018-03-29T10:33:16.180Z,4.47
2018-03-29T10:34:20.193Z,4.45
2018-03-29T10:35:23.463Z,4.32
2018-03-29T10:36:27.451Z,4.62
2018-03-29T10:37:30.642Z,4.22
2018-03-29T10:38:34.641Z,4.28
2018-03-29T10:39:38.637Z,4.40
2018-03-29T10:40:41.829Z,4.55
2018-03-29T10:41:45.808Z,4.28
2018-03-29T10:42:49.011Z,4.15
2018-03-29T10:43:52.989Z,3.65
2018-03-29T10:44:56.198Z,4.28
2018-03-29T10:45:59.402Z,4.25
2018-03-29T10:47:02.618Z,4.43
2018-03-29T10:48:05.834Z,4.03
2018-03-29T10:49:09.019Z,4.10
2018-03-29T10:50:13.010Z,4.35
2018-03-29T10:51:16.240Z,3.65
2018-03-29T10:52:19.446Z,4.37
2018-03-29T10:53:22.656Z,4.40
2018-03-29T10:54:25.846Z,4.70
2018-03-29T10:55:29.833Z,4.60
2018-03-29T10:56:33.040Z,3.95
2018-03-29T10:57:36.244Z,4.37
2018-03-29T10:58:39.463Z,4.53
2018-03-29T10:59:42.700Z,4.50
2018-03-29T11:00:45.916Z,4.25
2018-03-29T11:01:49.131Z,4.20
2018-03-29T11:02:53.145Z,4.30
2018-03-29T11:03:57.116Z,3.92
2018-03-29T11:05:00.342Z,4.45
2018-03-29T11:06:03.548Z,4.18
2018-03-29T11:07:06.768Z,3.40
2018-03-29T11:08:09.965Z,4.25
2018-03-29T11:09:13.980Z,4.50
2018-03-29T11:10:17.961Z,4.10
2018-03-29T11:11:21.233Z,4.18
2018-03-29T11:12:24.455Z,3.58
2018-03-29T11:13:28.444Z,5.05
2018-03-29T11:14:32.439Z,8.10
2018-03-29T11:15:36.413Z,11.30
2018-03-29T11:16:39.633Z,4.35
2018-03-29T11:17:43.638Z,4.20
2018-03-29T11:18:46.844Z,3.80
2018-03-29T11:19:50.057Z,3.67
2018-03-29T11:20:53.286Z,4.07
2018-03-29T11:21:56.564Z,5.25
2018-03-29T11:23:00.567Z,4.05
2018-03-29T11:24:04.573Z,3.87
2018-03-29T11:25:07.788Z,4.05
2018-03-29T11:26:11.040Z,3.83
2018-03-29T11:27:15.130Z,4.30
2018-03-29T11:28:19.106Z,4.03
2018-03-29T11:29:22.348Z,3.87
2018-03-29T11:30:25.575Z,3.83
2018-03-29T11:31:28.781Z,3.50
2018-03-29T11:32:32.013Z,4.47
2018-03-29T11:33:35.206Z,3.42
2018-03-29T11:34:39.200Z,3.92
2018-03-29T11:35:42.400Z,4.75
2018-03-29T11:36:45.671Z,3.75
2018-03-29T11:37:48.862Z,3.70
2018-03-29T11:38:52.061Z,4.40
2018-03-29T11:39:55.361Z,3.53
2018-03-29T11:40:58.582Z,3.50
2018-03-29T11:42:01.784Z,3.30
2018-03-29T11:43:05.112Z,3.65
2018-03-29T11:44:08.321Z,4.22
2018-03-29T11:45:11.574Z,3.25
2018-03-29T11:46:14.798Z,4.18
2018-03-29T11:47:18.001Z,4.25
2018-03-29T11:48:21.230Z,4.90
2018-03-29T11:49:24.452Z,4.55
2018-03-29T11:50:27.687Z,3.40
2018-03-29T11:51:31.689Z,4.10
2018-03-29T11:52:35.664Z,3.50
2018-03-29T11:53:39.673Z,3.00
2018-03-29T11:54:43.693Z,3.70
2018-03-29T11:55:47.667Z,3.00
2018-03-29T11:56:50.884Z,3.10
2018-03-29T11:57:54.091Z,3.45
2018-03-29T11:58:57.305Z,3.37
2018-03-29T12:00:00.536Z,2.97
2018-03-29T12:01:03.742Z,3.35
2018-03-29T12:02:06.959Z,3.62
2018-03-29T12:03:10.962Z,3.45
2018-03-29T12:04:14.947Z,4.03
2018-03-29T12:05:18.170Z,3.40
2018-03-29T12:06:21.387Z,3.47
2018-03-29T12:07:24.625Z,3.28
2018-03-29T12:08:28.625Z,3.17
2018-03-29T12:09:32.608Z,3.17
2018-03-29T12:10:36.592Z,3.37
2018-03-29T12:11:39.807Z,3.42
2018-03-29T12:12:43.785Z,3.17
2018-03-29T12:13:48.525Z,3.10
2018-03-29T12:14:52.520Z,2.80
2018-03-29T12:15:56.522Z,3.58
2018-03-29T12:17:00.503Z,2.97
2018-03-29T12:18:03.812Z,2.87
2018-03-29T12:19:07.964Z,2.33
2018-03-29T12:20:11.189Z,2.78
2018-03-29T12:21:14.407Z,2.80
2018-03-29T12:22:17.677Z,2.40
2018-03-29T12:23:21.642Z,2.83
2018-03-29T12:24:24.879Z,2.30
2018-03-29T12:25:28.087Z,2.70
2018-03-29T12:26:31.340Z,2.45
2018-03-29T12:27:34.546Z,2.78
2018-03-29T12:28:37.781Z,1.95
2018-03-29T12:29:41.795Z,2.60
2018-03-29T12:30:45.846Z,2.62
2018-03-29T12:31:49.032Z,2.80
2018-03-29T12:32:52.261Z,2.55
2018-03-29T12:33:56.233Z,3.12
2018-03-29T12:34:59.440Z,3.25
2018-03-29T12:36:02.711Z,3.03
2018-03-29T12:37:06.714Z,3.00
2018-03-29T12:38:10.693Z,3.00
2018-03-29T12:39:13.919Z,2.83
2018-03-29T12:40:17.136Z,3.03
2018-03-29T12:41:20.379Z,3.00
2018-03-29T12:42:24.424Z,2.75
2018-03-29T12:43:27.586Z,2.95
2018-03-29T12:44:30.783Z,3.30
2018-03-29T12:45:34.081Z,3.28
2018-03-29T12:46:37.272Z,2.67
2018-03-29T12:47:41.255Z,2.90
2018-03-29T12:48:44.466Z,3.00
2018-03-29T12:49:48.584Z,2.80
2018-03-29T12:50:51.809Z,2.90
2018-03-29T12:51:55.030Z,3.25
2018-03-29T12:52:59.011Z,3.40
2018-03-29T12:54:02.265Z,3.22
2018-03-29T12:55:17.392Z,2.97
2018-03-29T12:56:23.058Z,2.60
2018-03-29T12:57:38.334Z,2.45
2018-03-29T12:58:41.556Z,3.10
2018-03-29T12:59:44.744Z,3.40
2018-03-29T13:00:48.720Z,3.05
2018-03-29T13:01:51.960Z,2.70
2018-03-29T13:02:55.178Z,2.90
2018-03-29T13:03:58.398Z,3.25
2018-03-29T13:05:02.488Z,3.00
2018-03-29T13:06:06.631Z,2.92
2018-03-29T13:07:09.833Z,2.55
2018-03-29T13:08:13.048Z,2.85
2018-03-29T13:09:16.308Z,2.55
2018-03-29T13:10:19.536Z,2.70
2018-03-29T13:11:22.764Z,3.30
2018-03-29T13:12:25.996Z,2.80
2018-03-29T13:13:30.008Z,3.28
2018-03-29T13:14:34.000Z,3.17
2018-03-29T13:15:37.988Z,2.70
2018-03-29T13:16:41.224Z,3.28
2018-03-29T13:17:45.175Z,2.87
2018-03-29T13:18:49.202Z,3.42
2018-03-29T13:19:52.384Z,3.05
2018-03-29T13:20:56.436Z,2.70
2018-03-29T13:21:59.617Z,2.65
2018-03-29T13:23:02.840Z,3.15
2018-03-29T13:24:06.825Z,2.90
2018-03-29T13:25:10.112Z,2.90
2018-03-29T13:26:13.321Z,2.85
2018-03-29T13:27:16.536Z,2.78
2018-03-29T13:28:19.749Z,2.90
2018-03-29T13:29:23.812Z,2.97
2018-03-29T13:30:27.031Z,3.30
2018-03-29T13:31:30.339Z,3.15
2018-03-29T13:32:34.306Z,3.20
2018-03-29T13:33:37.522Z,3.35
2018-03-29T13:34:41.615Z,2.60
2018-03-29T13:35:44.847Z,3.12
2018-03-29T13:36:48.080Z,3.15
2018-03-29T13:37:51.288Z,3.00
2018-03-29T13:38:54.765Z,2.78
2018-03-29T13:39:58.873Z,3.25
2018-03-29T13:41:02.844Z,3.33
2018-03-29T13:42:06.069Z,3.35
2018-03-29T13:43:09.281Z,3.22
2018-03-29T13:44:12.500Z,4.30
2018-03-29T13:45:16.500Z,3.20
2018-03-29T13:46:20.489Z,3.20
2018-03-29T13:47:23.713Z,10.77
2018-03-29T13:48:26.993Z,10.00
2018-03-29T13:49:30.258Z,4.82
2018-03-29T13:50:33.437Z,3.92
2018-03-29T13:51:37.418Z,4.32
2018-03-29T13:52:40.625Z,3.80
2018-03-29T13:53:44.606Z,6.05
2018-03-29T13:54:47.819Z,3.25
2018-03-29T13:55:51.801Z,2.95
2018-03-29T13:56:54.997Z,3.45
2018-03-29T13:57:58.974Z,3.65
2018-03-29T13:59:02.207Z,3.40
2018-03-29T14:00:06.196Z,2.50
2018-03-29T14:01:09.406Z,3.08
2018-03-29T14:02:12.634Z,3.20
2018-03-29T14:03:16.623Z,2.80
2018-03-29T14:04:19.845Z,4.15
2018-03-29T14:05:23.292Z,4.22
2018-03-29T14:06:26.555Z,3.58